createdAt,value
2023-01-23T00:01:53.747Z,10.53
2023-01-23T00:04:20.623Z,10.30
2023-01-23T00:06:47.862Z,10.37
2023-01-23T00:09:14.008Z,10.27
2023-01-23T00:11:40.120Z,9.57
2023-01-23T00:14:06.230Z,9.83
2023-01-23T00:16:32.940Z,10.07
2023-01-23T00:18:59.601Z,10.93
2023-01-23T00:21:27.599Z,10.93
2023-01-23T00:23:55.612Z,10.83
2023-01-23T00:26:23.221Z,10.47
2023-01-23T00:28:49.749Z,10.33
2023-01-23T00:31:18.311Z,10.27
2023-01-23T00:33:44.800Z,11.40
2023-01-23T00:36:11.821Z,11.27
2023-01-23T00:38:38.617Z,11.23
2023-01-23T00:41:05.093Z,11.00
2023-01-23T00:43:31.202Z,10.97
2023-01-23T00:45:57.698Z,10.70
2023-01-23T00:48:23.877Z,11.03
2023-01-23T00:50:50.847Z,10.53
2023-01-23T00:53:17.116Z,10.50
2023-01-23T00:55:43.899Z,11.83
2023-01-23T00:58:10.166Z,11.47
2023-01-23T01:00:36.862Z,10.83
2023-01-23T01:03:03.344Z,12.50
2023-01-23T01:05:29.487Z,12.17
2023-01-23T01:07:55.670Z,11.33
2023-01-23T01:10:21.968Z,12.77
2023-01-23T01:12:49.113Z,11.90
2023-01-23T01:15:15.259Z,12.33
2023-01-23T01:17:41.355Z,12.50
2023-01-23T01:20:08.679Z,13.33
2023-01-23T01:22:34.786Z,12.73
2023-01-23T01:25:00.931Z,12.83
2023-01-23T01:27:28.368Z,13.67
2023-01-23T01:29:55.334Z,13.33
2023-01-23T01:32:21.453Z,12.87
2023-01-23T01:34:47.577Z,13.13
2023-01-23T01:37:13.710Z,13.17
2023-01-23T01:39:39.818Z,12.87
2023-01-23T01:42:05.949Z,14.07
2023-01-23T01:44:52.147Z,13.10
2023-01-23T01:47:18.938Z,13.20
2023-01-23T01:49:45.206Z,13.90
2023-01-23T01:52:13.082Z,13.30
2023-01-23T01:54:41.401Z,13.47
2023-01-23T01:57:09.846Z,15.53
2023-01-23T01:59:38.668Z,15.03
2023-01-23T02:02:08.540Z,13.83
2023-01-23T02:04:37.929Z,14.70
2023-01-23T02:07:07.801Z,14.00
2023-01-23T02:09:34.262Z,15.07
2023-01-23T02:12:01.136Z,14.17
2023-01-23T02:14:27.425Z,13.00
2023-01-23T02:16:58.999Z,14.87
2023-01-23T02:19:39.344Z,14.23
2023-01-23T02:22:13.061Z,13.83
2023-01-23T02:24:45.762Z,13.67
2023-01-23T02:27:12.673Z,13.37
2023-01-23T02:29:42.406Z,13.33
2023-01-23T02:32:08.823Z,14.10
2023-01-23T02:34:35.225Z,14.50
2023-01-23T02:37:01.608Z,15.00
2023-01-23T02:39:27.748Z,14.83
2023-01-23T02:41:55.316Z,15.63
2023-01-23T02:44:27.246Z,14.77
2023-01-23T02:46:53.636Z,15.73
2023-01-23T02:49:21.095Z,16.23
2023-01-23T02:51:47.261Z,16.47
2023-01-23T02:54:13.386Z,15.60
2023-01-23T02:56:41.321Z,16.47
2023-01-23T02:59:25.911Z,15.87
2023-01-23T03:01:52.841Z,17.10
2023-01-23T03:04:19.137Z,17.20
2023-01-23T03:06:45.298Z,16.77
2023-01-23T03:09:13.719Z,16.47
2023-01-23T03:11:41.477Z,16.07
2023-01-23T03:14:09.769Z,17.73
2023-01-23T03:16:38.192Z,16.47
2023-01-23T03:19:08.081Z,15.80
2023-01-23T03:21:36.252Z,15.67
2023-01-23T03:24:04.182Z,15.13
2023-01-23T03:26:30.471Z,15.73
2023-01-23T03:29:14.899Z,15.53
2023-01-23T03:31:41.366Z,15.17
2023-01-23T03:34:08.147Z,15.80
2023-01-23T03:36:36.564Z,16.97
2023-01-23T03:39:22.492Z,15.60
2023-01-23T03:41:48.784Z,16.57
2023-01-23T03:44:18.061Z,15.53
2023-01-23T03:46:44.206Z,15.47
2023-01-23T03:49:10.955Z,15.73
2023-01-23T03:51:37.065Z,14.93
2023-01-23T03:54:03.371Z,14.03
2023-01-23T03:56:29.500Z,14.53
2023-01-23T03:58:55.624Z,15.10
2023-01-23T04:01:22.161Z,13.70
2023-01-23T04:03:49.290Z,13.30
2023-01-23T04:06:16.051Z,14.33
2023-01-23T04:08:42.220Z,13.80
2023-01-23T04:11:09.816Z,13.33
2023-01-23T04:13:36.106Z,13.60
2023-01-23T04:16:03.250Z,13.47
2023-01-23T04:18:29.386Z,13.20
2023-01-23T04:20:55.827Z,13.57
2023-01-23T04:23:23.147Z,13.73
2023-01-23T04:25:49.559Z,13.80
2023-01-23T04:28:16.102Z,12.87
2023-01-23T04:30:42.662Z,13.73
2023-01-23T04:33:08.835Z,12.70
2023-01-23T04:35:35.193Z,13.03
2023-01-23T04:38:01.357Z,13.10
2023-01-23T04:40:28.119Z,13.27
2023-01-23T04:42:54.649Z,13.97
2023-01-23T04:45:20.798Z,13.63
2023-01-23T04:47:46.997Z,12.33
2023-01-23T04:50:13.142Z,12.50
2023-01-23T04:52:39.266Z,12.47
2023-01-23T04:55:06.225Z,13.33
2023-01-23T04:57:33.007Z,13.17
2023-01-23T05:00:00.601Z,12.93
2023-01-23T05:02:26.943Z,13.37
2023-01-23T05:04:53.088Z,12.73
2023-01-23T05:07:19.227Z,12.57
2023-01-23T05:09:45.330Z,12.60
2023-01-23T05:12:11.450Z,13.47
2023-01-23T05:14:38.238Z,13.13
2023-01-23T05:17:04.337Z,12.87
2023-01-23T05:19:30.486Z,13.47
2023-01-23T05:21:56.628Z,13.17
2023-01-23T05:24:22.782Z,12.27
2023-01-23T05:26:48.929Z,13.80
2023-01-23T05:29:15.069Z,14.20
2023-01-23T05:31:41.983Z,12.43
2023-01-23T05:34:08.169Z,12.53
2023-01-23T05:36:34.328Z,12.90
2023-01-23T05:39:00.440Z,12.80
2023-01-23T05:41:26.548Z,11.87
2023-01-23T05:43:52.676Z,11.80
2023-01-23T05:46:18.844Z,11.73
2023-01-23T05:48:48.994Z,11.70
2023-01-23T05:51:15.159Z,12.17
2023-01-23T05:53:41.332Z,12.40
2023-01-23T05:56:08.296Z,12.63
2023-01-23T05:58:34.553Z,12.23
2023-01-23T06:01:01.768Z,11.83
2023-01-23T06:03:27.885Z,13.47
2023-01-23T06:05:54.781Z,12.63
2023-01-23T06:08:20.937Z,12.57
2023-01-23T06:10:47.083Z,12.00
2023-01-23T06:13:13.666Z,12.77
2023-01-23T06:15:40.075Z,12.00
2023-01-23T06:18:06.325Z,12.80
2023-01-23T06:20:32.480Z,11.93
2023-01-23T06:22:59.244Z,12.37
2023-01-23T06:25:25.381Z,12.23
2023-01-23T06:27:54.050Z,12.47
2023-01-23T06:30:21.326Z,12.03
2023-01-23T06:32:47.621Z,12.37
2023-01-23T06:35:13.741Z,11.53
2023-01-23T06:37:39.981Z,12.10
2023-01-23T06:40:12.283Z,12.87
2023-01-23T06:42:39.023Z,12.50
2023-01-23T06:45:06.620Z,12.37
2023-01-23T06:47:32.759Z,13.40
2023-01-23T06:49:58.896Z,11.90
2023-01-23T06:52:25.017Z,12.33
2023-01-23T06:54:51.124Z,12.90
2023-01-23T06:57:17.965Z,12.67
2023-01-23T06:59:44.109Z,13.13
2023-01-23T07:02:10.905Z,12.63
2023-01-23T07:04:37.181Z,12.37
2023-01-23T07:07:03.460Z,13.57
2023-01-23T07:09:29.601Z,12.47
2023-01-23T07:11:55.700Z,12.70
2023-01-23T07:14:22.483Z,12.37
2023-01-23T07:16:48.604Z,13.17
2023-01-23T07:19:14.770Z,13.40
2023-01-23T07:21:40.872Z,13.20
2023-01-23T07:24:07.045Z,12.83
2023-01-23T07:26:33.165Z,12.90
2023-01-23T07:28:59.430Z,12.70
2023-01-23T07:31:26.238Z,12.63
2023-01-23T07:33:52.369Z,13.50
2023-01-23T07:36:18.497Z,12.80
2023-01-23T07:38:44.725Z,13.50
2023-01-23T07:41:10.833Z,13.20
2023-01-23T07:43:37.031Z,12.00
2023-01-23T07:46:03.358Z,12.97
2023-01-23T07:48:30.196Z,13.63
2023-01-23T07:50:56.359Z,12.93
2023-01-23T07:53:22.499Z,13.30
2023-01-23T07:55:48.634Z,12.83
2023-01-23T07:58:14.729Z,13.17
2023-01-23T08:00:41.244Z,12.10
2023-01-23T08:03:07.371Z,12.63
2023-01-23T08:05:34.146Z,12.27
2023-01-23T08:08:12.685Z,13.03
2023-01-23T08:10:39.547Z,12.43
2023-01-23T08:13:05.691Z,13.97
2023-01-23T08:15:31.844Z,12.33
2023-01-23T08:17:57.949Z,12.13
2023-01-23T08:20:24.080Z,13.07
2023-01-23T08:22:50.907Z,12.17
2023-01-23T08:25:17.129Z,12.63
2023-01-23T08:27:43.251Z,12.63
2023-01-23T08:30:10.601Z,11.63
2023-01-23T08:32:36.711Z,11.67
2023-01-23T08:35:03.680Z,13.40
2023-01-23T08:37:29.804Z,13.43
2023-01-23T08:39:56.559Z,13.40
2023-01-23T08:42:22.754Z,13.50
2023-01-23T08:44:48.869Z,12.73
2023-01-23T08:47:15.076Z,14.23
2023-01-23T08:49:41.166Z,12.97
2023-01-23T08:52:07.291Z,14.63
2023-01-23T08:54:33.400Z,13.63
2023-01-23T08:57:00.256Z,14.40
2023-01-23T08:59:26.397Z,14.10
2023-01-23T09:01:52.554Z,14.10
2023-01-23T09:04:18.683Z,13.43
2023-01-23T09:06:44.775Z,13.03
2023-01-23T09:09:10.907Z,15.03
2023-01-23T09:11:37.050Z,13.97
2023-01-23T09:14:03.807Z,12.77
2023-01-23T09:16:29.952Z,13.80
2023-01-23T09:18:56.547Z,14.73
2023-01-23T09:21:22.879Z,14.77
2023-01-23T09:23:48.997Z,14.20
2023-01-23T09:26:15.392Z,14.43
2023-01-23T09:28:42.182Z,14.40
2023-01-23T09:31:10.536Z,13.33
2023-01-23T09:33:36.783Z,12.73
2023-01-23T09:36:04.069Z,14.27
2023-01-23T09:38:32.568Z,13.13
2023-01-23T09:40:59.826Z,13.53
2023-01-23T09:43:34.949Z,14.27
2023-01-23T09:46:07.486Z,13.07
2023-01-23T09:48:42.328Z,13.93
2023-01-23T09:51:13.339Z,13.00
2023-01-23T09:53:39.911Z,12.83
2023-01-23T09:56:17.477Z,12.73
2023-01-23T09:58:47.172Z,13.33
2023-01-23T10:01:13.362Z,12.90
2023-01-23T10:03:40.411Z,12.57
2023-01-23T10:06:18.629Z,13.17
2023-01-23T10:08:54.117Z,12.07
2023-01-23T10:11:23.376Z,12.53
2023-01-23T10:14:01.905Z,12.37
2023-01-23T10:16:50.061Z,12.63
2023-01-23T10:19:29.452Z,12.13
2023-01-23T10:22:00.905Z,12.20
2023-01-23T10:24:40.600Z,12.33
2023-01-23T10:27:17.767Z,12.20
2023-01-23T10:29:45.690Z,12.67
2023-01-23T10:32:20.753Z,13.13
2023-01-23T10:34:52.123Z,13.07
2023-01-23T10:37:22.007Z,12.53
2023-01-23T10:39:50.779Z,13.47
2023-01-23T10:42:19.981Z,13.27
2023-01-23T10:44:47.188Z,12.57
2023-01-23T10:47:19.516Z,12.67
2023-01-23T10:49:46.043Z,13.10
2023-01-23T10:52:29.933Z,12.23
2023-01-23T10:54:56.153Z,12.27
2023-01-23T10:57:24.149Z,12.63
2023-01-23T10:59:54.692Z,13.37
2023-01-23T11:02:26.120Z,12.67
2023-01-23T11:04:52.385Z,12.67
2023-01-23T11:07:20.425Z,12.63
2023-01-23T11:09:49.874Z,13.13
2023-01-23T11:12:18.506Z,11.87
2023-01-23T11:14:44.841Z,13.07
2023-01-23T11:17:24.848Z,12.63
2023-01-23T11:19:53.554Z,13.23
2023-01-23T11:22:29.063Z,12.07
2023-01-23T11:24:56.146Z,11.87
2023-01-23T11:27:27.084Z,13.13
2023-01-23T11:30:34.907Z,12.93
2023-01-23T11:33:05.319Z,12.40
2023-01-23T11:35:45.625Z,11.63
2023-01-23T11:38:18.013Z,12.83
2023-01-23T11:40:47.286Z,12.53
2023-01-23T11:43:14.391Z,12.27
2023-01-23T11:45:49.682Z,13.30
2023-01-23T11:48:29.661Z,12.00
2023-01-23T11:51:02.349Z,12.87
2023-01-23T11:53:41.947Z,12.73
2023-01-23T11:56:36.685Z,13.43
2023-01-23T11:59:19.186Z,12.13
2023-01-23T12:02:03.151Z,12.33
2023-01-23T12:04:44.205Z,11.97
2023-01-23T12:07:16.128Z,12.37
2023-01-23T12:09:47.366Z,11.43
2023-01-23T12:12:22.869Z,11.70
2023-01-23T12:14:55.358Z,11.47
2023-01-23T12:17:30.654Z,12.20
2023-01-23T12:20:16.735Z,11.13
2023-01-23T12:22:50.096Z,10.90
2023-01-23T12:25:22.845Z,10.33
2023-01-23T12:27:56.964Z,10.87
2023-01-23T12:30:33.144Z,10.63
2023-01-23T12:33:17.461Z,10.73
2023-01-23T12:35:49.500Z,10.10
2023-01-23T12:38:26.342Z,9.80
2023-01-23T12:41:02.325Z,10.43
2023-01-23T12:43:34.227Z,10.30
2023-01-23T12:46:04.991Z,9.93
2023-01-23T12:48:36.217Z,8.80
2023-01-23T12:51:07.264Z,9.37
2023-01-23T12:53:36.652Z,10.47
2023-01-23T12:56:05.887Z,9.23
2023-01-23T12:58:35.206Z,8.60
2023-01-23T13:01:14.539Z,9.10
2023-01-23T13:03:54.623Z,8.40
2023-01-23T13:06:28.432Z,8.03
2023-01-23T13:09:08.888Z,7.60
2023-01-23T13:11:48.924Z,8.20
2023-01-23T13:14:20.068Z,8.33
2023-01-23T13:16:47.825Z,8.20
2023-01-23T13:19:40.728Z,8.00
2023-01-23T13:22:22.220Z,9.03
2023-01-23T13:25:07.556Z,7.90
2023-01-23T13:27:41.969Z,7.70
2023-01-23T13:30:40.238Z,7.30
2023-01-23T13:33:53.807Z,7.37
2023-01-23T13:36:35.198Z,6.97
2023-01-23T13:39:24.762Z,7.53
2023-01-23T13:42:07.296Z,7.50
2023-01-23T13:44:41.583Z,7.37
2023-01-23T14:22:36.518Z,8.67
2023-01-23T14:25:03.063Z,8.70
2023-01-23T14:27:34.984Z,8.60
2023-01-23T14:30:15.070Z,8.03
2023-01-23T14:32:41.691Z,9.03
2023-01-23T14:35:16.424Z,9.63
2023-01-23T14:37:42.856Z,8.97
2023-01-23T14:40:23.365Z,10.17
2023-01-23T14:42:57.409Z,9.30
2023-01-23T14:45:23.638Z,8.23
2023-01-23T14:47:59.626Z,8.60
2023-01-23T14:50:32.149Z,8.60
2023-01-23T14:53:00.744Z,9.53
2023-01-23T14:55:30.336Z,8.40
2023-01-23T14:57:58.706Z,8.67
2023-01-23T15:00:26.067Z,9.00
2023-01-23T15:02:53.658Z,8.50
2023-01-23T15:05:22.707Z,8.90
2023-01-23T15:07:52.434Z,8.80
2023-01-23T15:10:21.537Z,7.67
2023-01-23T15:12:49.811Z,8.77
2023-01-23T15:15:18.069Z,8.93
2023-01-23T15:17:45.170Z,8.37
2023-01-23T15:20:27.378Z,8.53
2023-01-23T15:22:54.293Z,9.23
2023-01-23T15:25:30.744Z,8.33
2023-01-23T15:27:56.941Z,8.77
2023-01-23T15:30:44.351Z,8.77
2023-01-23T15:33:24.823Z,8.53
2023-01-23T15:35:50.996Z,8.97
2023-01-23T15:38:17.846Z,8.80
2023-01-23T15:40:44.099Z,8.27
2023-01-23T15:43:12.262Z,8.93
2023-01-23T15:45:38.438Z,9.90
2023-01-23T15:48:05.531Z,8.93
2023-01-23T15:50:31.756Z,8.70
2023-01-23T15:52:57.870Z,9.67
2023-01-23T15:55:26.554Z,9.60
2023-01-23T15:57:53.159Z,7.90
2023-01-23T16:00:23.938Z,8.47
2023-01-23T16:02:56.826Z,8.90
2023-01-23T16:05:25.084Z,9.77
2023-01-23T16:07:52.156Z,8.20
2023-01-23T16:10:20.454Z,8.23
2023-01-23T16:12:48.944Z,7.33
2023-01-23T16:15:16.934Z,8.17
2023-01-23T16:17:43.250Z,8.17
2023-01-23T16:20:13.108Z,8.50
2023-01-23T16:22:39.393Z,10.13
2023-01-23T16:25:06.984Z,13.27
2023-01-23T16:27:33.129Z,10.40
2023-01-23T16:29:59.846Z,10.17
2023-01-23T16:32:26.037Z,9.10
2023-01-23T16:34:52.300Z,11.07
2023-01-23T16:37:18.674Z,10.03
2023-01-23T16:39:46.081Z,9.67
2023-01-23T16:42:18.707Z,9.57
2023-01-23T16:44:44.905Z,10.13
2023-01-23T16:47:11.670Z,9.90
2023-01-23T16:49:50.955Z,11.53
2023-01-23T16:52:18.719Z,11.27
2023-01-23T16:54:44.845Z,12.00
2023-01-23T16:57:15.577Z,9.93
2023-01-23T16:59:41.839Z,10.33
2023-01-23T17:02:16.582Z,9.30
2023-01-23T17:04:42.814Z,10.30
2023-01-23T17:07:12.280Z,9.77
2023-01-23T17:09:38.395Z,8.73
2023-01-23T17:12:05.180Z,9.80
2023-01-23T17:14:31.927Z,10.57
2023-01-23T17:17:01.964Z,10.33
2023-01-23T17:19:31.014Z,10.23
2023-01-23T17:21:58.053Z,10.67
2023-01-23T17:24:24.219Z,10.10
2023-01-23T17:26:50.315Z,12.40
2023-01-23T17:29:16.562Z,14.87
2023-01-23T17:31:43.050Z,10.37
2023-01-23T17:34:15.121Z,10.43
2023-01-23T17:36:42.035Z,9.73
2023-01-23T17:39:09.457Z,10.10
2023-01-23T17:41:35.633Z,10.10
2023-01-23T17:44:01.868Z,10.70
2023-01-23T17:46:30.841Z,9.60
2023-01-23T17:48:57.090Z,9.03
2023-01-23T17:51:24.533Z,9.70
2023-01-23T17:53:51.917Z,9.47
2023-01-23T17:56:18.382Z,10.63
2023-01-23T17:58:44.789Z,10.43
2023-01-23T18:01:17.036Z,9.93
2023-01-23T18:03:43.360Z,9.67
2023-01-23T18:06:09.733Z,10.40
2023-01-23T18:08:39.404Z,12.00
2023-01-23T18:11:06.363Z,9.77
2023-01-23T18:13:38.001Z,9.97
2023-01-23T18:16:10.437Z,10.60
2023-01-23T18:18:39.152Z,11.07
2023-01-23T18:21:09.694Z,11.03
2023-01-23T18:23:37.486Z,11.70
2023-01-23T18:26:13.298Z,12.47
2023-01-23T18:28:45.783Z,10.00
2023-01-23T18:31:16.191Z,10.50
2023-01-23T18:34:01.792Z,10.43
2023-01-23T18:36:34.263Z,9.73
2023-01-23T18:39:15.529Z,10.93
2023-01-23T18:41:47.431Z,11.27
2023-01-23T18:44:16.104Z,10.00
2023-01-23T18:46:42.695Z,9.93
2023-01-23T18:49:10.302Z,10.00
2023-01-23T18:51:39.906Z,11.13
2023-01-23T18:54:19.238Z,9.50
2023-01-23T18:56:55.496Z,8.37
2023-01-23T18:59:23.279Z,7.87
2023-01-23T19:01:52.609Z,8.07
2023-01-23T19:04:25.012Z,8.37
2023-01-23T19:06:51.600Z,8.70
2023-01-23T19:09:19.913Z,9.30
2023-01-23T19:11:56.081Z,9.17
2023-01-23T19:14:36.952Z,8.50
2023-01-23T19:17:08.198Z,9.33
2023-01-23T19:19:41.291Z,9.20
2023-01-23T19:22:10.942Z,8.53
2023-01-23T19:24:37.789Z,9.00
2023-01-23T19:27:11.900Z,9.10
2023-01-23T19:29:38.466Z,12.57
2023-01-23T19:32:06.260Z,12.27
2023-01-23T19:34:33.351Z,10.43
2023-01-23T19:36:59.487Z,11.00
2023-01-23T19:39:25.670Z,10.27
2023-01-23T19:41:52.505Z,10.93
2023-01-23T19:44:21.952Z,10.37
2023-01-23T19:46:48.178Z,9.40
2023-01-23T19:49:14.346Z,10.10
2023-01-23T19:51:41.159Z,10.03
2023-01-23T19:54:08.657Z,11.27
2023-01-23T19:56:35.555Z,10.83
2023-01-23T19:59:01.815Z,10.67
2023-01-23T20:01:33.161Z,10.60
2023-01-23T20:03:59.475Z,11.10
2023-01-23T20:06:25.905Z,12.23
2023-01-23T20:08:52.632Z,10.27
2023-01-23T20:11:18.770Z,12.63
2023-01-23T20:13:44.895Z,12.73
2023-01-23T20:16:14.836Z,12.17
2023-01-23T20:18:41.644Z,12.77
2023-01-23T20:21:07.838Z,13.07
2023-01-23T20:23:34.127Z,11.47
2023-01-23T20:26:00.921Z,11.27
2023-01-23T20:28:27.347Z,11.03
2023-01-23T20:30:53.521Z,10.10
2023-01-23T20:33:19.877Z,12.13
2023-01-23T20:35:50.014Z,12.30
2023-01-23T20:38:16.148Z,12.27
2023-01-23T20:40:42.277Z,11.27
2023-01-23T20:43:08.511Z,10.50
2023-01-23T20:45:34.664Z,12.60
2023-01-23T20:48:00.812Z,12.27
2023-01-23T20:50:26.976Z,11.73
2023-01-23T20:53:11.750Z,10.30
2023-01-23T20:55:37.883Z,11.90
2023-01-23T20:58:22.596Z,12.47
2023-01-23T21:00:48.691Z,11.03
2023-01-23T21:03:14.929Z,11.03
2023-01-23T21:05:41.076Z,10.77
2023-01-23T21:08:08.407Z,9.60
2023-01-23T21:10:34.560Z,10.03
2023-01-23T21:13:00.700Z,9.23
2023-01-23T21:15:26.832Z,8.70
2023-01-23T21:17:52.965Z,9.77
2023-01-23T21:20:19.193Z,9.97
2023-01-23T21:22:45.324Z,10.10
2023-01-23T21:25:12.263Z,9.93
2023-01-23T21:27:38.509Z,8.60
2023-01-23T21:30:05.710Z,8.43
2023-01-23T21:32:32.451Z,9.17
2023-01-23T21:34:58.572Z,9.03
2023-01-23T21:37:24.866Z,9.50
2023-01-23T21:39:51.052Z,8.77
2023-01-23T21:42:17.908Z,9.83
2023-01-23T21:44:44.034Z,9.83
2023-01-23T21:47:10.178Z,9.17
2023-01-23T21:49:36.304Z,9.67
2023-01-23T21:52:02.420Z,9.60
2023-01-23T21:54:28.541Z,10.53
2023-01-23T21:56:54.745Z,10.37
2023-01-23T21:59:21.505Z,10.87
2023-01-23T22:01:47.409Z,9.70
2023-01-23T22:04:15.708Z,9.17
2023-01-23T22:06:42.927Z,10.13
2023-01-23T22:09:10.067Z,10.07
2023-01-23T22:11:36.429Z,9.97
2023-01-23T22:14:02.566Z,9.90
2023-01-23T22:16:47.083Z,10.70
2023-01-23T22:19:14.756Z,10.40
2023-01-23T22:21:40.863Z,9.70
2023-01-23T22:24:07.408Z,10.40
2023-01-23T22:26:33.563Z,9.97
2023-01-23T22:28:59.680Z,9.40
2023-01-23T22:31:25.853Z,8.90
2023-01-23T22:33:52.652Z,9.17
2023-01-23T22:36:19.538Z,10.33
2023-01-23T22:38:50.319Z,10.47
2023-01-23T22:41:16.516Z,10.13
2023-01-23T22:43:42.619Z,10.17
2023-01-23T22:46:10.842Z,9.73
2023-01-23T22:48:38.018Z,9.83
2023-01-23T22:51:06.449Z,9.73
2023-01-23T22:53:33.217Z,8.63
2023-01-23T22:56:03.837Z,10.23
2023-01-23T22:58:29.946Z,9.80
2023-01-23T23:00:56.071Z,10.53
2023-01-23T23:03:22.352Z,10.03
2023-01-23T23:05:56.153Z,9.87
2023-01-23T23:08:23.233Z,10.33
2023-01-23T23:10:57.571Z,10.57
2023-01-23T23:13:23.724Z,11.63
2023-01-23T23:15:49.856Z,11.73
2023-01-23T23:18:15.961Z,11.37
2023-01-23T23:20:42.077Z,11.17
2023-01-23T23:23:08.210Z,11.90
2023-01-23T23:25:35.199Z,10.97
2023-01-23T23:28:01.457Z,12.73
2023-01-23T23:30:27.546Z,12.47
2023-01-23T23:32:53.654Z,12.13
2023-01-23T23:35:20.126Z,11.97
2023-01-23T23:37:46.538Z,11.77
2023-01-23T23:40:12.734Z,12.27
2023-01-23T23:42:40.605Z,12.40
2023-01-23T23:45:08.137Z,12.60
2023-01-23T23:47:34.233Z,11.87
2023-01-23T23:50:00.360Z,12.20
2023-01-23T23:52:26.537Z,12.33
2023-01-23T23:54:52.631Z,12.27
2023-01-23T23:57:18.831Z,12.40
2023-01-23T23:59:45.606Z,12.40
